createdAt,value
2023-10-30T00:00:07.074Z,100.00
2023-10-30T00:05:10.616Z,100.00
2023-10-30T00:10:12.659Z,100.00
2023-10-30T00:15:16.230Z,99.03
2023-10-30T00:20:18.471Z,98.73
2023-10-30T00:25:20.661Z,98.55
2023-10-30T00:30:24.173Z,98.69
2023-10-30T00:35:26.292Z,97.50
2023-10-30T00:40:28.598Z,99.37
2023-10-30T00:45:32.153Z,98.10
2023-10-30T00:50:34.314Z,97.97
2023-10-30T00:55:38.044Z,98.73
2023-10-30T01:00:41.447Z,98.21
2023-10-30T01:05:43.960Z,98.81
2023-10-30T01:10:46.185Z,98.58
2023-10-30T01:15:52.741Z,97.98
2023-10-30T01:20:54.888Z,98.32
2023-10-30T01:25:56.854Z,98.05
2023-10-30T01:31:00.349Z,98.18
2023-10-30T01:36:02.464Z,97.95
2023-10-30T01:41:04.795Z,98.64
2023-10-30T01:46:08.554Z,98.78
2023-10-30T01:51:13.008Z,97.90
2023-10-30T01:56:16.072Z,98.50
2023-10-30T02:01:19.755Z,98.37
2023-10-30T02:06:22.242Z,98.42
2023-10-30T02:11:24.359Z,99.36
2023-10-30T02:16:27.982Z,98.35
2023-10-30T02:21:30.173Z,99.33
2023-10-30T02:26:33.752Z,97.52
2023-10-30T02:31:35.824Z,97.16
2023-10-30T02:36:38.025Z,97.15
2023-10-30T02:41:41.649Z,97.65
2023-10-30T02:46:43.730Z,97.88
2023-10-30T02:51:45.742Z,97.26
2023-10-30T02:56:49.342Z,97.46
2023-10-30T03:01:51.804Z,96.35
2023-10-30T03:06:54.481Z,96.67
2023-10-30T03:11:58.167Z,96.89
2023-10-30T03:17:00.369Z,96.94
2023-10-30T03:22:02.306Z,96.25
2023-10-30T03:27:06.249Z,96.77
2023-10-30T03:32:08.347Z,96.60
2023-10-30T03:37:10.628Z,96.61
2023-10-30T03:42:14.157Z,97.12
2023-10-30T03:47:16.289Z,96.47
2023-10-30T03:52:18.482Z,97.90
2023-10-30T03:57:22.365Z,97.94
2023-10-30T04:02:24.710Z,98.48
2023-10-30T04:07:27.048Z,99.00
2023-10-30T04:12:30.992Z,98.87
2023-10-30T04:17:33.016Z,99.29
2023-10-30T04:22:35.142Z,99.34
2023-10-30T04:27:38.647Z,100.00
2023-10-30T04:32:40.843Z,100.00
2023-10-30T04:37:42.917Z,100.00
2023-10-30T04:42:48.304Z,100.00
2023-10-30T04:47:50.336Z,100.00
2023-10-30T04:52:52.625Z,100.00
2023-10-30T04:57:56.182Z,100.00
2023-10-30T05:02:58.310Z,100.00
2023-10-30T05:08:00.754Z,100.00
2023-10-30T05:13:04.276Z,100.00
2023-10-30T05:18:06.318Z,100.00
2023-10-30T05:23:08.418Z,100.00
2023-10-30T05:28:12.056Z,100.00
2023-10-30T05:33:14.289Z,100.00
2023-10-30T05:38:16.442Z,100.00
2023-10-30T05:43:19.943Z,100.00
2023-10-30T05:48:22.139Z,100.00
2023-10-30T05:53:23.919Z,100.00
2023-10-30T05:58:27.450Z,100.00
2023-10-30T06:03:29.612Z,100.00
2023-10-30T06:08:31.934Z,100.00
2023-10-30T06:13:35.493Z,100.00
2023-10-30T06:18:37.721Z,100.00
2023-10-30T06:23:39.906Z,100.00
2023-10-30T06:28:43.348Z,100.00
2023-10-30T06:33:46.509Z,100.00
2023-10-30T06:38:48.539Z,100.00
2023-10-30T06:43:52.130Z,99.70
2023-10-30T06:48:54.228Z,99.54
2023-10-30T06:53:56.298Z,99.13
2023-10-30T06:58:59.858Z,98.39
2023-10-30T07:04:02.028Z,98.02
2023-10-30T07:09:04.751Z,95.39
2023-10-30T07:14:08.622Z,94.54
2023-10-30T07:19:10.723Z,94.03
2023-10-30T07:24:12.908Z,92.63
2023-10-30T07:29:16.267Z,92.46
2023-10-30T07:34:18.682Z,93.32
2023-10-30T07:39:20.876Z,92.94
2023-10-30T07:44:24.631Z,91.03
2023-10-30T07:49:26.776Z,90.61
2023-10-30T07:54:28.919Z,88.88
2023-10-30T07:59:32.392Z,88.65
2023-10-30T08:04:34.590Z,88.90
2023-10-30T08:09:37.075Z,89.42
2023-10-30T08:14:40.686Z,89.79
2023-10-30T08:19:42.930Z,89.33
2023-10-30T08:24:45.094Z,90.74
2023-10-30T08:29:48.779Z,91.61
2023-10-30T08:34:51.204Z,90.42
2023-10-30T08:39:53.912Z,90.11
2023-10-30T08:44:57.382Z,89.16
2023-10-30T08:49:59.464Z,88.65
2023-10-30T08:55:04.232Z,87.74
2023-10-30T09:00:08.922Z,86.78
2023-10-30T09:05:11.169Z,84.55
2023-10-30T09:10:13.738Z,85.42
2023-10-30T09:15:17.464Z,84.63
2023-10-30T09:20:19.489Z,83.48
2023-10-30T09:25:21.842Z,83.09
2023-10-30T09:30:25.351Z,83.35
2023-10-30T09:35:27.633Z,83.06
2023-10-30T09:40:29.716Z,83.30
2023-10-30T09:45:37.164Z,82.40
2023-10-30T09:50:40.503Z,82.95
2023-10-30T09:55:43.706Z,83.14
2023-10-30T10:00:47.647Z,82.41
2023-10-30T10:06:00.860Z,83.83
2023-10-30T10:11:04.194Z,83.06
2023-10-30T10:16:08.301Z,82.25
2023-10-30T10:21:10.487Z,83.51
2023-10-30T10:26:12.635Z,83.04
2023-10-30T10:31:18.006Z,83.72
2023-10-30T10:36:20.112Z,83.19
2023-10-30T10:41:22.433Z,84.40
2023-10-30T10:46:26.470Z,83.00
2023-10-30T10:51:35.865Z,83.78
2023-10-30T10:56:39.291Z,84.53
2023-10-30T11:01:46.973Z,82.46
2023-10-30T11:06:55.682Z,75.57
2023-10-30T11:12:11.745Z,72.86
2023-10-30T11:17:16.775Z,73.73
2023-10-30T11:22:39.622Z,75.58
2023-10-30T11:27:42.678Z,80.26
2023-10-30T11:32:57.944Z,83.15
2023-10-30T11:38:00.258Z,84.01
2023-10-30T11:43:08.666Z,80.77
2023-10-30T11:48:13.997Z,79.63
2023-10-30T11:53:16.795Z,79.83
2023-10-30T11:58:20.106Z,80.50
2023-10-30T12:03:23.770Z,82.88
2023-10-30T12:08:26.174Z,83.34
2023-10-30T12:13:28.770Z,82.96
2023-10-30T12:18:32.394Z,83.95
2023-10-30T12:23:34.426Z,84.98
2023-10-30T12:28:36.862Z,83.50
2023-10-30T12:33:40.612Z,79.34
2023-10-30T12:38:42.707Z,76.51
2023-10-30T12:43:44.849Z,78.37
2023-10-30T12:48:48.009Z,77.03
2023-10-30T12:53:51.373Z,78.26
2023-10-30T12:58:54.128Z,79.66
2023-10-30T13:03:57.697Z,78.04
2023-10-30T13:08:59.886Z,78.70
2023-10-30T13:14:02.178Z,78.75
2023-10-30T13:19:05.869Z,80.12
2023-10-30T13:24:08.256Z,79.47
2023-10-30T13:29:10.330Z,78.59
2023-10-30T13:34:13.970Z,78.46
2023-10-30T13:39:16.201Z,78.59
2023-10-30T13:44:18.442Z,79.17
2023-10-30T13:49:22.193Z,80.24
2023-10-30T13:54:24.342Z,80.78
2023-10-30T13:59:26.611Z,81.40
2023-10-30T14:04:31.170Z,81.39
2023-10-30T14:09:33.543Z,82.64
2023-10-30T14:14:35.946Z,82.42
2023-10-30T14:19:39.659Z,83.53
2023-10-30T14:24:41.838Z,84.01
2023-10-30T14:29:44.048Z,84.36
2023-10-30T14:34:47.905Z,85.93
2023-10-30T14:39:50.350Z,87.63
2023-10-30T14:44:52.653Z,88.46
2023-10-30T14:49:56.094Z,89.27
2023-10-30T14:54:58.532Z,88.34
2023-10-30T15:00:00.570Z,88.57
2023-10-30T15:05:04.824Z,89.50
2023-10-30T15:10:08.398Z,90.33
2023-10-30T15:15:10.902Z,90.61
2023-10-30T15:20:14.517Z,91.90
2023-10-30T15:25:16.882Z,92.19
2023-10-30T15:30:19.083Z,92.36
2023-10-30T15:35:23.126Z,92.90
2023-10-30T15:40:25.187Z,92.26
2023-10-30T15:45:27.255Z,95.92
2023-10-30T15:50:30.826Z,96.04
2023-10-30T16:00:39.933Z,97.78
2023-10-30T16:05:47.517Z,98.45
2023-10-30T16:16:11.650Z,97.92
2023-10-30T16:21:16.760Z,98.67
2023-10-30T16:26:19.291Z,98.56
2023-10-30T16:31:21.598Z,99.02
2023-10-30T16:36:25.339Z,99.43
2023-10-30T16:41:27.556Z,98.57
2023-10-30T16:46:29.762Z,98.96
2023-10-30T16:51:33.473Z,99.47
2023-10-30T16:56:35.581Z,99.68
2023-10-30T17:01:37.720Z,99.15
2023-10-30T17:06:41.331Z,100.00
2023-10-30T17:11:43.459Z,100.00
2023-10-30T17:16:46.029Z,99.21
2023-10-30T17:21:50.001Z,100.00
2023-10-30T17:26:52.127Z,100.00
2023-10-30T17:31:54.390Z,100.00
2023-10-30T17:36:57.878Z,100.00
2023-10-30T17:42:00.006Z,100.00
2023-10-30T17:47:02.202Z,100.00
2023-10-30T17:52:05.956Z,100.00
2023-10-30T17:57:08.184Z,100.00
2023-10-30T18:02:10.372Z,100.00
2023-10-30T18:07:13.981Z,100.00
2023-10-30T18:12:16.216Z,100.00
2023-10-30T18:17:18.565Z,100.00
2023-10-30T18:22:22.068Z,100.00
2023-10-30T18:27:24.123Z,100.00
2023-10-30T18:32:26.355Z,100.00
2023-10-30T18:37:30.650Z,100.00
2023-10-30T18:42:33.522Z,100.00
2023-10-30T18:47:35.849Z,100.00
2023-10-30T18:52:39.567Z,100.00
2023-10-30T18:57:41.876Z,100.00
2023-10-30T19:02:44.037Z,100.00
2023-10-30T19:07:48.300Z,100.00
2023-10-30T19:12:50.550Z,100.00
2023-10-30T19:17:52.937Z,100.00
2023-10-30T19:22:56.456Z,100.00
2023-10-30T19:27:58.586Z,100.00
2023-10-30T19:33:00.767Z,100.00
2023-10-30T19:38:04.459Z,100.00
2023-10-30T19:43:06.631Z,100.00
2023-10-30T19:48:08.813Z,100.00
2023-10-30T19:53:12.513Z,100.00
2023-10-30T19:58:14.485Z,100.00
2023-10-30T20:03:16.731Z,100.00
2023-10-30T20:08:20.268Z,100.00
2023-10-30T20:13:22.530Z,100.00
2023-10-30T20:18:25.140Z,100.00
2023-10-30T20:23:28.653Z,100.00
2023-10-30T20:28:30.838Z,100.00
2023-10-30T20:33:33.214Z,100.00
2023-10-30T20:38:36.766Z,100.00
2023-10-30T20:43:38.934Z,100.00
2023-10-30T20:48:41.286Z,100.00
2023-10-30T20:53:44.669Z,100.00
2023-10-30T20:58:46.782Z,100.00
2023-10-30T21:03:48.854Z,100.00
2023-10-30T21:08:52.365Z,100.00
2023-10-30T21:13:54.764Z,100.00
2023-10-30T21:18:57.092Z,100.00
2023-10-30T21:24:00.910Z,100.00
2023-10-30T21:29:02.957Z,100.00
2023-10-30T21:34:05.922Z,100.00
2023-10-30T21:39:09.339Z,100.00
2023-10-30T21:44:11.876Z,100.00
2023-10-30T21:49:14.091Z,100.00
2023-10-30T21:54:17.587Z,100.00
2023-10-30T21:59:19.755Z,100.00
2023-10-30T22:04:22.005Z,100.00
2023-10-30T22:09:25.526Z,100.00
2023-10-30T22:14:27.589Z,100.00
2023-10-30T22:19:29.990Z,100.00
2023-10-30T22:24:33.527Z,100.00
2023-10-30T22:29:35.621Z,100.00
2023-10-30T22:34:37.764Z,100.00
2023-10-30T22:39:41.236Z,100.00
2023-10-30T22:44:43.343Z,100.00
2023-10-30T22:49:45.488Z,100.00
2023-10-30T22:54:48.935Z,100.00
2023-10-30T22:59:51.072Z,100.00
2023-10-30T23:04:53.462Z,100.00
2023-10-30T23:09:57.081Z,100.00
2023-10-30T23:14:59.439Z,100.00
2023-10-30T23:20:01.769Z,100.00
2023-10-30T23:25:06.706Z,100.00
2023-10-30T23:30:09.977Z,100.00
2023-10-30T23:35:12.129Z,100.00
2023-10-30T23:40:15.892Z,100.00
2023-10-30T23:45:18.022Z,100.00
2023-10-30T23:50:20.218Z,100.00
2023-10-30T23:55:23.894Z,100.00
